createdAt,value
2024-03-15T00:02:05.818Z,4.73
2024-03-15T00:04:34.032Z,4.73
2024-03-15T00:07:02.527Z,4.50
2024-03-15T00:09:31.158Z,4.43
2024-03-15T00:12:00.649Z,4.73
2024-03-15T00:14:29.281Z,4.60
2024-03-15T00:16:57.582Z,4.60
2024-03-15T00:19:26.016Z,4.57
2024-03-15T00:21:54.459Z,4.70
2024-03-15T00:24:22.694Z,4.93
2024-03-15T00:26:50.972Z,4.40
2024-03-15T00:29:19.702Z,4.57
2024-03-15T00:31:47.830Z,5.17
2024-03-15T00:34:15.994Z,4.70
2024-03-15T00:36:45.343Z,4.50
2024-03-15T00:39:13.676Z,4.27
2024-03-15T00:41:41.841Z,4.63
2024-03-15T00:44:09.985Z,4.77
2024-03-15T00:46:39.011Z,4.20
2024-03-15T00:49:07.530Z,4.83
2024-03-15T00:51:36.650Z,4.90
2024-03-15T00:54:05.418Z,4.93
2024-03-15T00:56:33.615Z,5.13
2024-03-15T00:59:01.795Z,4.53
2024-03-15T01:01:30.383Z,4.97
2024-03-15T01:03:58.756Z,4.73
2024-03-15T01:06:27.149Z,4.50
2024-03-15T01:08:54.363Z,4.63
2024-03-15T01:11:22.765Z,4.67
2024-03-15T01:13:55.239Z,4.67
2024-03-15T01:16:23.603Z,4.50
2024-03-15T01:18:51.861Z,4.77
2024-03-15T01:21:20.084Z,4.70
2024-03-15T01:23:48.986Z,4.53
2024-03-15T01:26:17.274Z,4.20
2024-03-15T01:28:45.386Z,4.47
2024-03-15T01:31:13.507Z,4.60
2024-03-15T01:33:41.681Z,5.17
2024-03-15T01:36:09.900Z,4.80
2024-03-15T01:38:38.179Z,4.67
2024-03-15T01:41:06.953Z,4.80
2024-03-15T01:43:35.127Z,4.80
2024-03-15T01:46:03.236Z,4.57
2024-03-15T01:48:31.437Z,4.33
2024-03-15T01:50:59.601Z,4.40
2024-03-15T01:53:27.800Z,4.00
2024-03-15T01:55:55.934Z,4.60
2024-03-15T01:58:25.606Z,4.77
2024-03-15T02:00:53.865Z,4.50
2024-03-15T02:03:22.094Z,4.57
2024-03-15T02:05:50.431Z,4.63
2024-03-15T02:08:20.214Z,4.67
2024-03-15T02:10:48.506Z,3.93
2024-03-15T02:13:17.068Z,4.00
2024-03-15T02:15:45.289Z,4.27
2024-03-15T02:18:13.579Z,4.93
2024-03-15T02:20:42.351Z,4.60
2024-03-15T02:23:10.738Z,4.03
2024-03-15T02:25:38.881Z,4.33
2024-03-15T02:28:08.179Z,4.27
2024-03-15T02:30:36.599Z,4.20
2024-03-15T02:33:05.079Z,4.00
2024-03-15T02:35:34.215Z,4.03
2024-03-15T02:38:02.478Z,3.30
2024-03-15T02:40:30.645Z,3.57
2024-03-15T02:42:59.053Z,3.83
2024-03-15T02:45:27.504Z,3.60
2024-03-15T02:47:55.931Z,3.47
2024-03-15T02:50:24.082Z,3.67
2024-03-15T02:52:52.200Z,3.30
2024-03-15T02:55:20.399Z,2.97
2024-03-15T02:57:48.691Z,3.07
2024-03-15T03:00:17.204Z,3.33
2024-03-15T03:02:45.384Z,2.80
2024-03-15T03:05:14.336Z,2.73
2024-03-15T03:07:42.462Z,2.80
2024-03-15T03:10:10.730Z,2.63
2024-03-15T03:12:39.001Z,2.40
2024-03-15T03:15:07.818Z,2.80
2024-03-15T03:17:36.109Z,2.33
2024-03-15T03:20:12.430Z,3.10
2024-03-15T03:22:40.647Z,2.20
2024-03-15T03:25:11.153Z,2.40
2024-03-15T03:27:39.417Z,2.77
2024-03-15T03:30:08.230Z,2.47
2024-03-15T03:32:37.358Z,2.40
2024-03-15T03:35:05.925Z,2.13
2024-03-15T03:37:33.125Z,2.40
2024-03-15T03:40:01.507Z,2.37
2024-03-15T03:42:30.218Z,2.30
2024-03-15T03:44:59.214Z,2.00
2024-03-15T03:47:27.414Z,2.17
2024-03-15T03:49:55.577Z,1.93
2024-03-15T03:52:23.879Z,2.40
2024-03-15T03:54:52.059Z,2.43
2024-03-15T03:57:35.327Z,2.87
2024-03-15T04:00:14.855Z,2.40
2024-03-15T04:02:46.705Z,2.40
2024-03-15T04:05:15.528Z,2.00
2024-03-15T04:07:45.947Z,2.50
2024-03-15T04:10:14.478Z,2.67
2024-03-15T04:12:43.992Z,2.13
2024-03-15T04:15:24.602Z,2.43
2024-03-15T04:17:59.131Z,2.70
2024-03-15T04:20:28.379Z,2.13
2024-03-15T04:22:57.593Z,2.00
2024-03-15T04:25:27.352Z,2.50
2024-03-15T04:27:56.698Z,2.50
2024-03-15T04:30:25.328Z,2.73
2024-03-15T04:32:57.043Z,2.63
2024-03-15T04:35:28.651Z,2.73
2024-03-15T04:37:57.072Z,2.93
2024-03-15T04:40:27.326Z,3.10
2024-03-15T04:42:58.092Z,3.37
2024-03-15T04:45:26.617Z,3.30
2024-03-15T04:47:55.692Z,2.90
2024-03-15T04:50:24.068Z,3.33
2024-03-15T04:52:54.210Z,3.00
2024-03-15T04:55:23.096Z,3.33
2024-03-15T04:57:52.141Z,3.30
2024-03-15T05:00:22.242Z,3.10
2024-03-15T05:02:52.311Z,3.90
2024-03-15T05:05:22.939Z,3.23
2024-03-15T05:07:51.709Z,3.10
2024-03-15T05:10:20.216Z,2.90
2024-03-15T05:12:49.448Z,3.07
2024-03-15T05:15:17.973Z,3.80
2024-03-15T05:17:46.488Z,3.70
2024-03-15T05:20:15.056Z,3.17
2024-03-15T05:22:45.573Z,3.57
2024-03-15T05:25:16.791Z,3.53
2024-03-15T05:27:45.936Z,3.63
2024-03-15T05:30:15.889Z,3.90
2024-03-15T05:32:44.673Z,3.53
2024-03-15T05:35:13.058Z,3.83
2024-03-15T05:37:41.465Z,3.37
2024-03-15T05:40:11.108Z,4.43
2024-03-15T05:42:39.354Z,3.70
2024-03-15T05:45:08.101Z,3.40
2024-03-15T05:47:36.968Z,3.37
2024-03-15T05:50:05.989Z,3.07
2024-03-15T05:52:34.687Z,3.10
2024-03-15T05:55:03.349Z,3.60
2024-03-15T05:57:31.904Z,3.50
2024-03-15T06:00:04.763Z,3.57
2024-03-15T06:02:32.885Z,3.70
2024-03-15T06:05:01.047Z,3.23
2024-03-15T06:07:29.820Z,2.40
2024-03-15T06:09:58.124Z,2.53
2024-03-15T06:12:28.881Z,2.03
2024-03-15T06:14:57.716Z,2.40
2024-03-15T06:17:25.919Z,2.63
2024-03-15T06:19:57.099Z,2.57
2024-03-15T06:22:25.511Z,2.53
2024-03-15T06:24:56.164Z,2.70
2024-03-15T06:27:24.450Z,2.60
2024-03-15T06:29:54.037Z,2.30
2024-03-15T06:32:27.640Z,2.60
2024-03-15T06:34:56.842Z,2.90
2024-03-15T06:37:26.691Z,2.33
2024-03-15T06:40:05.131Z,2.57
2024-03-15T06:43:00.157Z,2.63
2024-03-15T06:45:45.571Z,2.47
2024-03-15T06:48:19.178Z,2.20
2024-03-15T06:50:51.536Z,2.30
2024-03-15T06:53:19.652Z,3.40
2024-03-15T06:55:48.616Z,2.27
2024-03-15T06:58:23.742Z,2.27
2024-03-15T07:00:53.034Z,1.90
2024-03-15T07:03:21.398Z,2.50
2024-03-15T07:05:49.677Z,2.10
2024-03-15T07:08:17.887Z,2.27
2024-03-15T07:10:46.201Z,2.30
2024-03-15T07:13:14.944Z,2.20
2024-03-15T07:15:44.757Z,2.20
2024-03-15T07:18:14.562Z,1.97
2024-03-15T07:20:43.615Z,2.20
2024-03-15T07:23:12.653Z,2.33
2024-03-15T07:25:41.329Z,2.23
2024-03-15T07:28:10.350Z,2.60
2024-03-15T07:30:38.911Z,3.10
2024-03-15T07:33:08.537Z,2.77
2024-03-15T07:35:36.885Z,2.60
2024-03-15T07:38:06.286Z,2.87
2024-03-15T07:40:35.294Z,2.97
2024-03-15T07:43:03.536Z,2.57
2024-03-15T07:45:31.851Z,2.17
2024-03-15T07:48:00.183Z,2.40
2024-03-15T07:50:28.375Z,2.27
2024-03-15T07:52:57.479Z,2.70
2024-03-15T07:55:25.686Z,2.37
2024-03-15T07:57:54.344Z,2.53
2024-03-15T08:00:23.022Z,2.60
2024-03-15T08:02:51.252Z,2.00
2024-03-15T08:05:23.833Z,2.20
2024-03-15T08:07:51.998Z,2.13
2024-03-15T08:10:21.785Z,2.30
2024-03-15T08:12:50.013Z,2.63
2024-03-15T08:15:18.324Z,2.07
2024-03-15T08:20:18.432Z,2.00
2024-03-15T08:22:46.667Z,1.73
2024-03-15T08:25:15.100Z,2.37
2024-03-15T08:27:48.473Z,2.13
2024-03-15T08:30:18.601Z,2.13
2024-03-15T08:32:46.799Z,2.23
2024-03-15T08:35:16.512Z,2.03
2024-03-15T08:37:45.015Z,2.17
2024-03-15T08:40:14.494Z,2.03
2024-03-15T08:42:46.616Z,2.77
2024-03-15T08:45:16.135Z,2.60
2024-03-15T08:47:54.719Z,2.70
2024-03-15T08:50:33.989Z,3.20
2024-03-15T08:53:05.314Z,2.90
2024-03-15T08:55:35.134Z,2.50
2024-03-15T08:58:04.895Z,2.37
2024-03-15T09:00:33.639Z,2.23
2024-03-15T09:03:01.893Z,2.30
2024-03-15T09:05:30.119Z,2.13
2024-03-15T09:07:59.320Z,1.93
2024-03-15T09:10:28.524Z,2.00
2024-03-15T09:12:56.953Z,2.50
2024-03-15T09:15:25.173Z,2.47
2024-03-15T09:17:53.802Z,2.77
2024-03-15T09:20:29.020Z,2.40
2024-03-15T09:22:57.674Z,2.60
2024-03-15T09:25:28.302Z,2.00
2024-03-15T09:27:56.735Z,2.97
2024-03-15T09:30:30.518Z,2.37
2024-03-15T09:32:59.543Z,2.33
2024-03-15T09:35:27.802Z,2.00
2024-03-15T09:37:55.982Z,2.17
2024-03-15T09:40:26.164Z,2.43
2024-03-15T09:42:55.472Z,2.67
2024-03-15T09:45:25.240Z,2.17
2024-03-15T09:47:53.866Z,2.33
2024-03-15T09:50:23.184Z,2.37
2024-03-15T09:52:52.127Z,2.10
2024-03-15T09:55:21.371Z,2.17
2024-03-15T09:57:51.098Z,1.90
2024-03-15T10:00:24.341Z,1.70
2024-03-15T10:02:54.873Z,2.10
2024-03-15T10:05:23.361Z,2.20
2024-03-15T10:07:51.569Z,1.53
2024-03-15T10:10:19.720Z,1.60
2024-03-15T10:12:48.072Z,1.57
2024-03-15T10:15:16.342Z,1.43
2024-03-15T10:17:45.203Z,1.37
2024-03-15T10:20:15.322Z,1.50
2024-03-15T10:22:43.578Z,1.30
2024-03-15T10:25:16.524Z,1.33
2024-03-15T10:27:45.257Z,1.30
2024-03-15T10:30:16.347Z,1.10
2024-03-15T10:32:47.767Z,1.20
2024-03-15T10:35:17.399Z,1.10
2024-03-15T10:37:45.594Z,1.20
2024-03-15T10:40:14.554Z,1.20
2024-03-15T10:42:43.475Z,1.50
2024-03-15T10:45:13.478Z,1.30
2024-03-15T10:47:42.061Z,1.53
2024-03-15T10:50:12.396Z,1.20
2024-03-15T10:52:41.893Z,1.70
2024-03-15T10:55:15.406Z,1.60
2024-03-15T10:57:43.692Z,1.23
2024-03-15T11:00:17.435Z,1.90
2024-03-15T11:02:45.680Z,1.67
2024-03-15T11:05:18.608Z,1.90
2024-03-15T11:07:47.352Z,2.07
2024-03-15T11:10:16.072Z,1.70
2024-03-15T11:12:44.497Z,2.07
2024-03-15T11:15:16.619Z,1.90
2024-03-15T11:17:44.885Z,1.93
2024-03-15T11:20:14.486Z,1.40
2024-03-15T11:22:42.620Z,1.77
2024-03-15T11:25:18.514Z,2.70
2024-03-15T11:27:58.023Z,1.93
2024-03-15T11:30:28.717Z,1.73
2024-03-15T11:32:57.884Z,2.30
2024-03-15T11:35:26.091Z,1.97
2024-03-15T11:37:56.985Z,1.80
2024-03-15T11:40:27.305Z,1.80
2024-03-15T11:43:05.322Z,2.03
2024-03-15T11:45:37.323Z,2.43
2024-03-15T11:48:10.846Z,2.10
2024-03-15T11:50:39.580Z,2.13
2024-03-15T11:53:07.782Z,2.10
2024-03-15T11:55:36.118Z,1.90
2024-03-15T11:58:04.419Z,2.00
2024-03-15T12:00:32.775Z,2.67
2024-03-15T12:03:00.973Z,2.23
2024-03-15T12:05:29.116Z,1.97
2024-03-15T12:07:57.278Z,1.77
2024-03-15T12:10:25.538Z,2.23
2024-03-15T12:12:54.422Z,1.83
2024-03-15T12:15:29.685Z,2.00
2024-03-15T12:17:59.490Z,1.63
2024-03-15T12:20:29.303Z,1.53
2024-03-15T12:22:57.451Z,2.00
2024-03-15T12:25:25.616Z,2.00
2024-03-15T12:27:55.220Z,2.30
2024-03-15T12:30:23.509Z,1.60
2024-03-15T12:32:51.818Z,2.00
2024-03-15T12:35:19.974Z,1.33
2024-03-15T12:37:48.089Z,2.07
2024-03-15T12:40:18.666Z,1.80
2024-03-15T12:42:47.012Z,1.40
2024-03-15T12:45:16.431Z,1.67
2024-03-15T12:47:44.814Z,1.97
2024-03-15T12:50:16.055Z,2.37
2024-03-15T12:52:46.204Z,1.50
2024-03-15T12:55:15.539Z,1.83
2024-03-15T12:57:43.887Z,1.93
2024-03-15T13:00:14.963Z,1.73
2024-03-15T13:02:43.770Z,2.20
2024-03-15T13:05:12.007Z,2.23
2024-03-15T13:07:40.215Z,2.40
2024-03-15T13:10:08.622Z,2.77
2024-03-15T13:12:36.914Z,2.63
2024-03-15T13:15:06.019Z,2.33
2024-03-15T13:17:34.851Z,2.00
2024-03-15T13:20:03.154Z,2.70
2024-03-15T13:22:31.796Z,2.10
2024-03-15T13:25:00.021Z,2.80
2024-03-15T13:27:28.254Z,2.37
2024-03-15T13:29:56.475Z,2.30
2024-03-15T13:32:27.247Z,2.50
2024-03-15T13:34:57.205Z,2.47
2024-03-15T13:37:25.325Z,2.23
2024-03-15T13:39:53.793Z,2.40
2024-03-15T13:42:21.968Z,2.50
2024-03-15T13:44:50.125Z,3.23
2024-03-15T13:47:19.019Z,2.93
2024-03-15T13:49:47.864Z,2.90
2024-03-15T13:52:16.022Z,3.47
2024-03-15T13:54:44.240Z,3.37
2024-03-15T13:57:14.022Z,3.03
2024-03-15T13:59:42.210Z,3.37
2024-03-15T14:02:10.389Z,3.57
2024-03-15T14:04:38.550Z,3.53
2024-03-15T14:07:07.661Z,3.53
2024-03-15T14:09:35.952Z,3.23
2024-03-15T14:12:05.975Z,4.03
2024-03-15T14:14:33.352Z,2.80
2024-03-15T14:17:01.534Z,3.97
2024-03-15T14:19:30.229Z,3.57
2024-03-15T14:21:58.418Z,3.50
2024-03-15T14:24:26.693Z,3.60
2024-03-15T14:26:54.856Z,2.40
2024-03-15T14:29:23.001Z,3.10
2024-03-15T14:31:51.196Z,3.27
2024-03-15T14:34:19.879Z,2.87
2024-03-15T14:36:48.102Z,3.70
2024-03-15T14:39:16.387Z,3.07
2024-03-15T14:41:44.534Z,3.17
2024-03-15T14:44:12.689Z,2.97
2024-03-15T14:46:40.930Z,3.13
2024-03-15T14:49:09.892Z,3.33
2024-03-15T14:51:38.055Z,3.60
2024-03-15T14:54:08.587Z,3.17
2024-03-15T14:56:36.714Z,3.73
2024-03-15T14:59:05.660Z,3.23
2024-03-15T15:01:34.785Z,3.43
2024-03-15T15:04:03.310Z,3.83
2024-03-15T15:06:31.550Z,2.83
2024-03-15T15:08:59.790Z,3.47
2024-03-15T15:11:28.025Z,3.83
2024-03-15T15:13:56.203Z,4.03
2024-03-15T15:16:25.092Z,4.07
2024-03-15T15:18:53.380Z,4.10
2024-03-15T15:21:21.673Z,4.07
2024-03-15T15:23:49.851Z,3.77
2024-03-15T15:26:18.005Z,4.40
2024-03-15T15:28:46.916Z,3.57
2024-03-15T15:31:15.345Z,5.07
2024-03-15T15:33:45.528Z,4.40
2024-03-15T15:36:14.381Z,4.17
2024-03-15T15:38:42.601Z,3.83
2024-03-15T15:41:10.795Z,3.37
2024-03-15T15:43:39.001Z,3.53
2024-03-15T15:46:07.628Z,3.93
2024-03-15T15:48:36.013Z,3.93
2024-03-15T15:51:05.229Z,3.97
2024-03-15T15:53:33.344Z,4.10
2024-03-15T15:56:01.708Z,4.77
2024-03-15T15:58:29.897Z,3.80
2024-03-15T16:00:58.111Z,4.50
2024-03-15T16:03:26.636Z,4.47
2024-03-15T16:05:56.684Z,4.20
2024-03-15T16:08:25.286Z,4.83
2024-03-15T16:10:53.550Z,4.00
2024-03-15T16:13:23.311Z,4.23
2024-03-15T16:15:51.807Z,3.67
2024-03-15T16:18:20.088Z,4.23
2024-03-15T16:20:48.235Z,4.20
2024-03-15T16:23:16.761Z,4.43
2024-03-15T16:25:45.290Z,4.30
2024-03-15T16:28:13.545Z,4.40
2024-03-15T16:30:41.745Z,4.00
2024-03-15T16:33:12.932Z,4.60
2024-03-15T16:35:41.548Z,3.87
2024-03-15T16:38:09.677Z,3.80
2024-03-15T16:40:37.855Z,3.83
2024-03-15T16:43:06.372Z,4.53
2024-03-15T16:45:35.147Z,3.90
2024-03-15T16:48:03.413Z,5.30
2024-03-15T16:50:31.526Z,4.63
2024-03-15T16:52:58.691Z,4.57
2024-03-15T16:55:29.100Z,4.20
2024-03-15T16:57:57.919Z,4.27
2024-03-15T17:00:26.217Z,4.00
2024-03-15T17:02:54.435Z,3.80
2024-03-15T17:05:22.553Z,4.60
2024-03-15T17:07:52.870Z,4.53
2024-03-15T17:10:21.318Z,3.50
2024-03-15T17:12:49.547Z,3.83
2024-03-15T17:15:17.722Z,3.43
2024-03-15T17:17:46.064Z,2.97
2024-03-15T17:20:17.442Z,4.10
2024-03-15T17:22:46.278Z,4.23
2024-03-15T17:25:14.809Z,3.30
2024-03-15T17:27:43.066Z,4.07
2024-03-15T17:30:12.044Z,3.97
2024-03-15T17:32:42.008Z,3.30
2024-03-15T17:35:10.914Z,4.17
2024-03-15T17:37:39.067Z,4.27
2024-03-15T17:40:10.913Z,3.97
2024-03-15T17:42:39.933Z,3.83
2024-03-15T17:45:10.635Z,4.00
2024-03-15T17:47:39.902Z,4.73
2024-03-15T17:50:09.290Z,3.73
2024-03-15T17:52:39.355Z,5.10
2024-03-15T17:55:09.492Z,4.37
2024-03-15T17:57:38.706Z,4.50
2024-03-15T18:00:13.844Z,5.07
2024-03-15T18:02:42.666Z,5.07
2024-03-15T18:05:12.310Z,5.23
2024-03-15T18:07:40.762Z,4.87
2024-03-15T18:10:10.717Z,4.77
2024-03-15T18:12:40.088Z,5.50
2024-03-15T18:15:08.652Z,5.23
2024-03-15T18:17:36.898Z,5.87
2024-03-15T18:20:05.330Z,5.30
2024-03-15T18:22:33.497Z,5.30
2024-03-15T18:25:03.176Z,5.37
2024-03-15T18:27:31.415Z,4.63
2024-03-15T18:29:59.599Z,5.27
2024-03-15T18:32:29.260Z,6.43
2024-03-15T18:34:57.512Z,4.40
2024-03-15T18:37:25.694Z,4.80
2024-03-15T18:39:56.274Z,5.50
2024-03-15T18:42:24.563Z,4.03
2024-03-15T18:44:52.882Z,4.87
2024-03-15T18:47:21.078Z,5.30
2024-03-15T18:49:52.002Z,4.83
2024-03-15T18:52:20.230Z,6.37
2024-03-15T18:54:50.565Z,5.10
2024-03-15T18:57:19.175Z,5.57
2024-03-15T18:59:47.758Z,5.33
2024-03-15T19:02:17.523Z,6.60
2024-03-15T19:04:48.266Z,5.13
2024-03-15T19:07:17.370Z,5.17
2024-03-15T19:09:46.908Z,5.47
2024-03-15T19:12:15.197Z,6.10
2024-03-15T19:14:43.386Z,5.20
2024-03-15T19:17:13.618Z,6.33
2024-03-15T19:19:42.026Z,5.13
2024-03-15T19:22:10.189Z,5.03
2024-03-15T19:24:38.459Z,5.30
2024-03-15T19:27:07.298Z,4.63
2024-03-15T19:29:35.485Z,5.07
2024-03-15T19:32:03.926Z,4.37
2024-03-15T19:34:32.117Z,4.53
2024-03-15T19:37:00.407Z,4.33
2024-03-15T19:39:28.664Z,4.00
2024-03-15T19:41:56.803Z,3.47
2024-03-15T19:44:24.907Z,3.40
2024-03-15T19:46:53.084Z,3.50
2024-03-15T19:49:21.272Z,3.30
2024-03-15T19:51:49.426Z,3.13
2024-03-15T19:54:17.668Z,3.03
2024-03-15T19:56:45.914Z,2.70
2024-03-15T19:59:16.049Z,3.60
2024-03-15T20:01:44.569Z,2.67
2024-03-15T20:04:13.758Z,2.73
2024-03-15T20:06:43.166Z,3.20
2024-03-15T20:09:14.290Z,3.40
2024-03-15T20:11:42.936Z,3.27
2024-03-15T20:14:12.083Z,2.90
2024-03-15T20:16:40.223Z,3.73
2024-03-15T20:19:08.460Z,3.10
2024-03-15T20:21:37.483Z,2.70
2024-03-15T20:24:07.198Z,3.27
2024-03-15T20:26:35.844Z,4.23
2024-03-15T20:29:04.121Z,3.93
2024-03-15T20:31:32.287Z,4.00
2024-03-15T20:34:00.873Z,4.00
2024-03-15T20:36:29.607Z,3.63
2024-03-15T20:38:58.934Z,3.60
2024-03-15T20:41:27.130Z,4.33
2024-03-15T20:43:55.599Z,4.80
2024-03-15T20:46:24.419Z,3.73
2024-03-15T20:48:53.004Z,4.00
2024-03-15T20:51:24.377Z,3.87
2024-03-15T20:53:53.282Z,3.17
2024-03-15T20:56:21.707Z,3.43
2024-03-15T20:58:51.341Z,3.90
2024-03-15T21:01:19.802Z,4.37
2024-03-15T21:03:50.161Z,3.37
2024-03-15T21:06:19.102Z,3.60
2024-03-15T21:08:47.736Z,3.90
2024-03-15T21:11:16.102Z,3.63
2024-03-15T21:13:45.688Z,3.63
2024-03-15T21:16:15.808Z,2.90
2024-03-15T21:18:44.204Z,3.13
2024-03-15T21:21:12.430Z,3.20
2024-03-15T21:23:40.786Z,3.43
2024-03-15T21:26:13.164Z,4.13
2024-03-15T21:28:41.853Z,4.97
2024-03-15T21:31:10.505Z,3.57
2024-03-15T21:33:38.891Z,3.33
2024-03-15T21:36:09.805Z,3.80
2024-03-15T21:38:39.422Z,4.90
2024-03-15T21:41:07.706Z,3.30
2024-03-15T21:43:35.863Z,3.70
2024-03-15T21:46:06.376Z,3.83
2024-03-15T21:48:37.201Z,4.00
2024-03-15T21:51:06.572Z,3.23
2024-03-15T21:53:34.934Z,3.20
2024-03-15T21:56:06.274Z,3.70
2024-03-15T21:58:34.493Z,4.10
2024-03-15T22:01:03.227Z,3.90
2024-03-15T22:03:33.267Z,4.43
2024-03-15T22:06:01.458Z,4.03
2024-03-15T22:08:29.727Z,3.47
2024-03-15T22:10:57.886Z,3.50
2024-03-15T22:13:27.005Z,3.53
2024-03-15T22:15:56.216Z,3.17
2024-03-15T22:18:24.515Z,3.87
2024-03-15T22:20:52.763Z,3.13
2024-03-15T22:23:20.951Z,3.23
2024-03-15T22:25:50.371Z,2.97
2024-03-15T22:28:18.896Z,3.67
2024-03-15T22:30:51.630Z,2.73
2024-03-15T22:33:20.088Z,2.57
2024-03-15T22:35:49.030Z,2.47
2024-03-15T22:38:17.449Z,2.07
2024-03-15T22:40:45.657Z,2.70
2024-03-15T22:43:13.829Z,2.67
2024-03-15T22:45:42.459Z,2.10
2024-03-15T22:48:10.678Z,2.40
2024-03-15T22:50:39.036Z,2.70
2024-03-15T22:53:07.679Z,2.67
2024-03-15T22:55:35.921Z,2.67
2024-03-15T22:58:04.514Z,1.90
2024-03-15T23:00:33.192Z,2.33
2024-03-15T23:03:01.491Z,2.57
2024-03-15T23:05:29.684Z,2.40
2024-03-15T23:07:58.102Z,1.90
2024-03-15T23:10:26.402Z,2.50
2024-03-15T23:12:55.577Z,2.57
2024-03-15T23:15:24.197Z,2.97
2024-03-15T23:17:53.898Z,3.17
2024-03-15T23:20:22.646Z,2.23
2024-03-15T23:22:52.820Z,2.10
2024-03-15T23:25:22.351Z,2.70
2024-03-15T23:27:50.721Z,2.27
2024-03-15T23:30:19.757Z,2.47
2024-03-15T23:32:48.075Z,2.70
2024-03-15T23:35:16.739Z,2.93
2024-03-15T23:37:45.107Z,2.77
2024-03-15T23:40:13.955Z,2.77
2024-03-15T23:42:42.275Z,2.80
2024-03-15T23:45:10.646Z,3.00
2024-03-15T23:47:38.828Z,2.50
2024-03-15T23:50:08.109Z,3.70
2024-03-15T23:52:36.255Z,4.60
2024-03-15T23:55:08.617Z,4.50
2024-03-15T23:57:37.552Z,4.17
